createdAt,value
2022-07-25T00:01:12.247Z,27.14
2022-07-25T00:03:39.208Z,27.10
2022-07-25T00:06:06.777Z,27.04
2022-07-25T00:08:40.023Z,26.97
2022-07-25T00:11:06.554Z,26.93
2022-07-25T00:13:33.988Z,26.89
2022-07-25T00:16:00.460Z,26.85
2022-07-25T00:18:27.012Z,26.81
2022-07-25T00:20:53.591Z,26.78
2022-07-25T00:23:20.067Z,26.75
2022-07-25T00:25:46.615Z,26.73
2022-07-25T00:28:13.124Z,26.70
2022-07-25T00:30:39.618Z,26.68
2022-07-25T00:33:06.182Z,26.66
2022-07-25T00:35:32.675Z,26.65
2022-07-25T00:37:59.129Z,26.63
2022-07-25T00:40:25.796Z,26.61
2022-07-25T00:42:52.263Z,26.58
2022-07-25T00:45:18.751Z,26.55
2022-07-25T00:47:45.319Z,26.53
2022-07-25T00:50:11.825Z,26.49
2022-07-25T00:52:38.571Z,26.46
2022-07-25T00:55:06.004Z,26.43
2022-07-25T00:57:32.455Z,26.41
2022-07-25T00:59:58.944Z,26.38
2022-07-25T01:02:25.497Z,26.36
2022-07-25T01:04:52.099Z,26.33
2022-07-25T01:07:18.549Z,26.31
2022-07-25T01:09:45.684Z,26.27
2022-07-25T01:12:12.281Z,26.24
2022-07-25T01:14:38.999Z,26.23
2022-07-25T01:17:05.650Z,26.19
2022-07-25T01:19:32.325Z,26.16
2022-07-25T01:21:58.977Z,26.14
2022-07-25T01:24:25.579Z,26.11
2022-07-25T01:26:52.065Z,26.08
2022-07-25T01:29:18.483Z,26.06
2022-07-25T01:31:45.085Z,26.03
2022-07-25T01:34:11.563Z,26.01
2022-07-25T01:36:38.009Z,25.98
2022-07-25T01:39:04.519Z,25.95
2022-07-25T01:41:31.007Z,25.92
2022-07-25T01:43:57.476Z,25.89
2022-07-25T01:46:24.054Z,25.86
2022-07-25T01:48:50.620Z,25.82
2022-07-25T01:51:20.319Z,25.79
2022-07-25T01:53:47.658Z,25.75
2022-07-25T01:56:14.916Z,25.73
2022-07-25T01:58:41.383Z,25.68
2022-07-25T02:01:07.936Z,25.65
2022-07-25T02:03:34.467Z,25.63
2022-07-25T02:06:03.687Z,25.58
2022-07-25T02:08:31.041Z,25.55
2022-07-25T02:10:58.049Z,25.51
2022-07-25T02:13:25.581Z,25.47
2022-07-25T02:15:52.245Z,25.43
2022-07-25T02:18:19.374Z,25.38
2022-07-25T02:20:46.107Z,25.35
2022-07-25T02:23:12.623Z,25.30
2022-07-25T02:25:39.126Z,25.27
2022-07-25T02:28:05.657Z,25.22
2022-07-25T02:30:32.322Z,25.20
2022-07-25T02:33:00.157Z,25.17
2022-07-25T02:35:27.118Z,25.14
2022-07-25T02:37:53.650Z,25.11
2022-07-25T02:40:20.198Z,25.09
2022-07-25T02:42:46.852Z,25.06
2022-07-25T02:45:13.976Z,25.03
2022-07-25T02:47:40.454Z,25.01
2022-07-25T02:50:07.602Z,24.98
2022-07-25T02:52:35.101Z,24.94
2022-07-25T02:55:04.897Z,24.93
2022-07-25T02:57:35.692Z,24.89
2022-07-25T03:00:02.231Z,24.88
2022-07-25T03:02:28.763Z,24.86
2022-07-25T03:04:55.334Z,24.84
2022-07-25T03:07:21.818Z,24.81
2022-07-25T03:09:48.439Z,24.81
2022-07-25T03:12:14.961Z,24.78
2022-07-25T03:14:41.559Z,24.76
2022-07-25T03:17:08.171Z,24.72
2022-07-25T03:19:34.810Z,24.69
2022-07-25T03:22:01.285Z,24.66
2022-07-25T03:24:27.777Z,24.64
2022-07-25T03:26:55.133Z,24.60
2022-07-25T03:29:21.587Z,24.58
2022-07-25T03:31:48.073Z,24.56
2022-07-25T03:34:14.762Z,24.54
2022-07-25T03:36:41.192Z,24.50
2022-07-25T03:39:07.843Z,24.49
2022-07-25T03:41:34.426Z,24.47
2022-07-25T03:44:00.887Z,24.44
2022-07-25T03:46:27.445Z,24.42
2022-07-25T03:48:55.631Z,24.40
2022-07-25T03:51:22.289Z,24.39
2022-07-25T03:54:04.520Z,24.38
2022-07-25T03:56:43.231Z,24.38
2022-07-25T03:59:12.578Z,24.36
2022-07-25T04:01:39.442Z,24.36
2022-07-25T04:04:06.471Z,24.34
2022-07-25T04:06:33.511Z,24.35
2022-07-25T04:09:00.231Z,24.35
2022-07-25T04:11:28.098Z,24.36
2022-07-25T04:13:55.318Z,24.37
2022-07-25T04:16:22.436Z,24.38
2022-07-25T04:18:50.649Z,24.41
2022-07-25T04:21:18.507Z,24.43
2022-07-25T04:23:45.181Z,24.46
2022-07-25T04:26:11.614Z,24.48
2022-07-25T04:28:38.250Z,24.51
2022-07-25T04:31:04.925Z,24.55
2022-07-25T04:33:31.427Z,24.58
2022-07-25T04:35:57.891Z,24.62
2022-07-25T04:38:24.352Z,24.67
2022-07-25T04:40:51.054Z,24.71
2022-07-25T04:43:17.522Z,24.73
2022-07-25T04:45:43.948Z,24.77
2022-07-25T04:48:10.499Z,24.80
2022-07-25T04:50:37.009Z,24.84
2022-07-25T04:53:04.279Z,24.88
2022-07-25T04:55:32.388Z,24.92
2022-07-25T04:58:00.568Z,24.96
2022-07-25T05:00:27.575Z,25.00
2022-07-25T05:02:54.099Z,25.06
2022-07-25T05:05:21.660Z,25.09
2022-07-25T05:07:48.964Z,25.14
2022-07-25T05:10:15.421Z,25.18
2022-07-25T05:12:42.163Z,25.22
2022-07-25T05:15:09.352Z,25.24
2022-07-25T05:17:35.827Z,25.27
2022-07-25T05:20:02.413Z,25.29
2022-07-25T05:22:29.177Z,25.31
2022-07-25T05:24:56.319Z,25.33
2022-07-25T05:27:23.563Z,25.35
2022-07-25T05:29:49.978Z,25.35
2022-07-25T05:32:16.615Z,25.37
2022-07-25T05:34:43.022Z,25.38
2022-07-25T05:37:09.533Z,25.39
2022-07-25T05:39:37.462Z,25.41
2022-07-25T05:42:04.064Z,25.44
2022-07-25T05:44:30.586Z,25.48
2022-07-25T05:46:57.124Z,25.52
2022-07-25T05:49:23.698Z,25.57
2022-07-25T05:51:50.199Z,25.63
2022-07-25T05:54:16.993Z,25.69
2022-07-25T05:56:43.468Z,25.73
2022-07-25T05:59:09.997Z,25.79
2022-07-25T06:01:36.861Z,25.85
2022-07-25T06:04:03.722Z,25.91
2022-07-25T06:06:32.713Z,25.97
2022-07-25T06:08:59.282Z,26.03
2022-07-25T06:11:30.918Z,26.09
2022-07-25T06:13:58.104Z,26.16
2022-07-25T06:16:24.788Z,26.24
2022-07-25T06:18:51.393Z,26.30
2022-07-25T06:21:17.824Z,26.37
2022-07-25T06:23:44.465Z,26.43
2022-07-25T06:26:11.389Z,26.48
2022-07-25T06:28:38.550Z,26.54
2022-07-25T06:31:05.232Z,26.58
2022-07-25T06:33:31.743Z,26.63
2022-07-25T06:35:58.337Z,26.68
2022-07-25T06:38:24.900Z,26.75
2022-07-25T06:40:51.452Z,26.84
2022-07-25T06:43:18.558Z,26.96
2022-07-25T06:45:47.601Z,27.08
2022-07-25T06:48:17.828Z,27.24
2022-07-25T06:50:44.644Z,27.38
2022-07-25T06:53:11.208Z,27.52
2022-07-25T06:55:37.859Z,27.64
2022-07-25T06:58:04.731Z,27.76
2022-07-25T07:00:31.249Z,27.88
2022-07-25T07:03:01.406Z,27.98
2022-07-25T07:05:33.938Z,28.14
2022-07-25T07:08:01.153Z,28.26
2022-07-25T07:10:28.664Z,28.37
2022-07-25T07:13:10.411Z,28.49
2022-07-25T07:15:38.116Z,28.60
2022-07-25T07:18:06.430Z,28.71
2022-07-25T07:20:33.059Z,28.82
2022-07-25T07:22:59.578Z,28.93
2022-07-25T07:25:28.440Z,29.05
2022-07-25T07:27:55.332Z,29.16
2022-07-25T07:30:24.807Z,29.27
2022-07-25T07:32:52.041Z,29.39
2022-07-25T07:35:19.419Z,29.50
2022-07-25T07:37:46.845Z,29.61
2022-07-25T07:40:17.353Z,29.73
2022-07-25T07:42:47.235Z,29.85
2022-07-25T07:45:22.073Z,29.98
2022-07-25T07:47:50.525Z,30.10
2022-07-25T07:50:19.179Z,30.24
2022-07-25T07:52:46.553Z,30.37
2022-07-25T07:55:34.134Z,30.52
2022-07-25T07:58:01.351Z,30.70
2022-07-25T08:00:31.083Z,30.84
2022-07-25T08:02:59.232Z,30.98
2022-07-25T08:05:30.371Z,31.11
2022-07-25T08:07:57.604Z,31.22
2022-07-25T08:10:27.091Z,31.32
2022-07-25T08:12:53.804Z,31.41
2022-07-25T08:15:21.988Z,31.51
2022-07-25T08:17:50.360Z,31.59
2022-07-25T08:20:39.108Z,31.72
2022-07-25T08:23:06.687Z,31.86
2022-07-25T08:25:33.339Z,31.99
2022-07-25T08:27:59.818Z,32.12
2022-07-25T08:30:27.007Z,32.22
2022-07-25T08:33:00.386Z,32.30
2022-07-25T08:35:28.992Z,32.34
2022-07-25T08:37:56.313Z,32.36
2022-07-25T08:40:25.182Z,32.38
2022-07-25T08:42:54.917Z,32.38
2022-07-25T08:45:22.437Z,32.36
2022-07-25T08:47:51.843Z,32.36
2022-07-25T08:50:21.057Z,32.36
2022-07-25T08:52:48.992Z,32.36
2022-07-25T08:55:21.235Z,32.39
2022-07-25T08:57:49.366Z,32.39
2022-07-25T09:00:18.881Z,32.39
2022-07-25T09:02:56.509Z,32.39
2022-07-25T09:05:24.317Z,32.38
2022-07-25T09:07:52.535Z,32.36
2022-07-25T09:10:21.794Z,32.35
2022-07-25T09:13:00.753Z,32.34
2022-07-25T09:15:33.350Z,32.31
2022-07-25T09:18:03.163Z,32.27
2022-07-25T09:20:49.837Z,32.23
2022-07-25T09:23:39.944Z,32.16
2022-07-25T09:26:14.683Z,32.06
2022-07-25T09:28:46.319Z,31.96
2022-07-25T09:31:13.898Z,31.86
2022-07-25T09:33:56.960Z,31.79
2022-07-25T09:36:24.055Z,31.73
2022-07-25T09:39:00.835Z,31.71
2022-07-25T09:41:40.769Z,31.74
2022-07-25T09:44:23.159Z,31.79
2022-07-25T09:46:50.436Z,31.85
2022-07-25T09:49:17.121Z,31.96
2022-07-25T09:51:43.824Z,32.07
2022-07-25T09:54:10.673Z,32.19
2022-07-25T09:56:37.377Z,32.31
2022-07-25T09:59:04.571Z,32.42
2022-07-25T10:01:44.089Z,32.56
2022-07-25T10:04:21.735Z,32.67
2022-07-25T10:07:01.978Z,32.79
2022-07-25T10:09:28.774Z,32.90
2022-07-25T10:12:09.806Z,33.04
2022-07-25T10:14:38.064Z,33.14
2022-07-25T10:17:05.986Z,33.26
2022-07-25T10:19:52.037Z,33.39
2022-07-25T10:22:39.728Z,33.46
2022-07-25T10:25:12.561Z,33.54
2022-07-25T10:27:44.796Z,33.59
2022-07-25T10:30:23.529Z,33.63
2022-07-25T10:32:57.361Z,33.69
2022-07-25T10:35:25.831Z,33.75
2022-07-25T10:37:53.988Z,33.84
2022-07-25T10:40:53.537Z,33.96
2022-07-25T10:43:22.354Z,34.04
2022-07-25T10:45:59.843Z,34.13
2022-07-25T10:48:29.553Z,34.21
2022-07-25T10:51:03.496Z,34.30
2022-07-25T10:53:44.356Z,34.36
2022-07-25T10:56:22.604Z,34.44
2022-07-25T10:58:53.325Z,34.51
2022-07-25T11:01:34.107Z,34.60
2022-07-25T11:04:05.977Z,34.66
2022-07-25T11:06:38.326Z,34.73
2022-07-25T11:09:18.040Z,34.78
2022-07-25T11:11:50.693Z,34.80
2022-07-25T11:14:24.845Z,34.82
2022-07-25T11:16:54.981Z,34.81
2022-07-25T11:19:29.422Z,34.80
2022-07-25T11:21:58.184Z,34.77
2022-07-25T11:24:40.471Z,34.75
2022-07-25T11:27:12.743Z,34.71
2022-07-25T11:29:39.924Z,34.71
2022-07-25T11:32:09.288Z,34.69
2022-07-25T11:34:46.825Z,34.68
2022-07-25T11:37:15.196Z,34.67
2022-07-25T11:39:44.671Z,34.68
2022-07-25T11:42:12.678Z,34.71
2022-07-25T11:44:48.267Z,34.78
2022-07-25T11:47:32.595Z,34.87
2022-07-25T11:50:02.283Z,34.95
2022-07-25T11:52:34.554Z,35.09
2022-07-25T11:55:02.676Z,35.21
2022-07-25T11:57:31.647Z,35.33
2022-07-25T12:00:02.927Z,35.47
2022-07-25T12:02:31.910Z,35.61
2022-07-25T12:05:06.702Z,35.74
2022-07-25T12:07:46.765Z,35.88
2022-07-25T12:10:17.040Z,35.99
2022-07-25T12:12:48.720Z,36.09
2022-07-25T12:15:17.499Z,36.18
2022-07-25T12:17:44.178Z,36.23
2022-07-25T12:20:17.682Z,36.28
2022-07-25T12:22:44.667Z,36.30
2022-07-25T12:25:12.079Z,36.30
2022-07-25T12:31:32.572Z,36.35
2022-07-25T12:33:59.355Z,36.38
2022-07-25T12:36:25.868Z,36.37
2022-07-25T12:38:55.098Z,36.34
2022-07-25T12:41:23.591Z,36.31
2022-07-25T12:43:50.098Z,36.24
2022-07-25T12:46:17.155Z,36.16
2022-07-25T12:48:44.281Z,36.05
2022-07-25T12:51:11.056Z,35.89
2022-07-25T12:53:41.966Z,35.75
2022-07-25T12:56:09.034Z,35.58
2022-07-25T12:58:36.476Z,35.41
2022-07-25T13:01:03.559Z,35.24
2022-07-25T13:03:30.345Z,35.07
2022-07-25T13:05:57.014Z,34.92
2022-07-25T13:08:23.537Z,34.78
2022-07-25T13:10:50.200Z,34.65
2022-07-25T13:13:16.925Z,34.52
2022-07-25T13:15:43.456Z,34.43
2022-07-25T13:18:10.252Z,34.34
2022-07-25T13:20:37.572Z,34.27
2022-07-25T13:23:04.214Z,34.22
2022-07-25T13:25:31.377Z,34.18
2022-07-25T13:27:58.009Z,34.12
2022-07-25T13:30:24.764Z,34.03
2022-07-25T13:32:51.659Z,33.93
2022-07-25T13:35:20.672Z,33.84
2022-07-25T13:37:48.453Z,33.70
2022-07-25T13:40:14.983Z,33.57
2022-07-25T13:42:41.521Z,33.47
2022-07-25T13:45:08.482Z,33.37
2022-07-25T13:47:36.109Z,33.27
2022-07-25T13:50:02.816Z,33.19
2022-07-25T13:52:29.326Z,33.14
2022-07-25T13:54:55.794Z,33.12
2022-07-25T13:57:22.378Z,33.16
2022-07-25T13:59:48.832Z,33.22
2022-07-25T14:02:15.443Z,33.30
2022-07-25T14:04:42.024Z,33.38
2022-07-25T14:07:08.518Z,33.46
2022-07-25T14:09:35.138Z,33.50
2022-07-25T14:12:01.682Z,33.52
2022-07-25T14:14:28.132Z,33.50
2022-07-25T14:16:55.665Z,33.45
2022-07-25T14:19:23.728Z,33.38
2022-07-25T14:21:59.249Z,33.31
2022-07-25T14:24:25.739Z,33.25
2022-07-25T14:26:55.345Z,33.18
2022-07-25T14:29:25.965Z,33.10
2022-07-25T14:31:57.000Z,33.06
2022-07-25T14:34:24.169Z,33.03
2022-07-25T14:36:50.724Z,33.03
2022-07-25T14:39:17.261Z,33.03
2022-07-25T14:41:43.820Z,33.02
2022-07-25T14:44:11.135Z,33.01
2022-07-25T14:46:38.077Z,32.99
2022-07-25T14:49:05.056Z,32.96
2022-07-25T14:51:32.971Z,32.91
2022-07-25T14:53:59.453Z,32.86
2022-07-25T14:56:25.969Z,32.78
2022-07-25T14:58:52.713Z,32.70
2022-07-25T15:01:21.045Z,32.61
2022-07-25T15:03:48.184Z,32.51
2022-07-25T15:06:17.338Z,32.36
2022-07-25T15:08:44.825Z,32.20
2022-07-25T15:11:12.252Z,32.00
2022-07-25T15:13:38.788Z,31.82
2022-07-25T15:16:05.613Z,31.62
2022-07-25T15:18:34.058Z,31.42
2022-07-25T15:21:08.986Z,31.23
2022-07-25T15:23:35.824Z,31.07
2022-07-25T15:26:04.185Z,30.93
2022-07-25T15:28:35.576Z,30.82
2022-07-25T15:31:02.853Z,30.70
2022-07-25T15:33:29.742Z,30.58
2022-07-25T15:35:56.404Z,30.46
2022-07-25T15:38:24.234Z,30.37
2022-07-25T15:40:51.072Z,30.31
2022-07-25T15:43:17.832Z,30.30
2022-07-25T15:45:46.090Z,30.28
2022-07-25T15:48:14.332Z,30.27
2022-07-25T15:50:43.996Z,30.23
2022-07-25T15:53:11.246Z,30.18
2022-07-25T15:55:39.838Z,30.13
2022-07-25T15:58:07.269Z,30.09
2022-07-25T16:00:34.727Z,30.07
2022-07-25T16:03:01.385Z,30.05
2022-07-25T16:05:28.123Z,30.05
2022-07-25T16:07:54.665Z,30.05
2022-07-25T16:10:21.202Z,30.05
2022-07-25T16:12:47.726Z,30.06
2022-07-25T16:15:14.484Z,30.06
2022-07-25T16:17:41.351Z,30.06
2022-07-25T16:20:11.853Z,30.04
2022-07-25T16:22:39.460Z,30.01
2022-07-25T16:25:06.364Z,29.98
2022-07-25T16:27:32.999Z,29.95
2022-07-25T16:30:01.153Z,29.93
2022-07-25T16:32:27.691Z,29.90
2022-07-25T16:34:54.226Z,29.89
2022-07-25T16:37:21.488Z,29.90
2022-07-25T16:39:48.062Z,29.90
2022-07-25T16:42:14.573Z,29.91
2022-07-25T16:44:41.423Z,29.95
2022-07-25T16:47:08.730Z,30.02
2022-07-25T16:49:35.310Z,30.11
2022-07-25T16:52:01.946Z,30.27
2022-07-25T16:54:29.296Z,30.44
2022-07-25T16:56:59.622Z,30.61
2022-07-25T16:59:26.684Z,30.77
2022-07-25T17:01:53.428Z,30.88
2022-07-25T17:04:20.058Z,30.89
2022-07-25T17:06:46.711Z,30.84
2022-07-25T17:09:13.275Z,30.72
2022-07-25T17:11:39.789Z,30.55
2022-07-25T17:14:06.397Z,30.38
2022-07-25T17:16:33.183Z,30.21
2022-07-25T17:19:00.074Z,30.04
2022-07-25T17:24:07.622Z,29.68
2022-07-25T17:26:35.063Z,29.56
2022-07-25T17:29:23.951Z,29.43
2022-07-25T17:31:53.439Z,29.32
2022-07-25T17:34:22.146Z,29.22
2022-07-25T17:36:48.665Z,29.12
2022-07-25T17:39:15.661Z,29.05
2022-07-25T17:41:42.449Z,29.02
2022-07-25T17:44:12.224Z,29.05
2022-07-25T17:46:39.292Z,29.17
2022-07-25T17:49:05.896Z,29.35
2022-07-25T17:51:32.696Z,29.56
2022-07-25T17:53:59.238Z,29.77
2022-07-25T17:56:36.108Z,30.01
2022-07-25T17:59:24.345Z,30.24
2022-07-25T18:02:42.637Z,30.49
2022-07-25T18:05:09.685Z,30.61
2022-07-25T18:10:42.403Z,30.58
2022-07-25T18:13:08.953Z,30.46
2022-07-25T18:15:36.579Z,30.37
2022-07-25T18:18:03.379Z,30.28
2022-07-25T18:20:29.807Z,30.12
2022-07-25T18:22:58.528Z,29.96
2022-07-25T18:25:24.975Z,29.79
2022-07-25T18:27:51.451Z,29.64
2022-07-25T18:30:18.139Z,29.49
2022-07-25T18:32:45.643Z,29.37
2022-07-25T18:35:12.172Z,29.28
2022-07-25T18:37:38.909Z,29.23
2022-07-25T18:40:07.390Z,29.23
2022-07-25T18:42:34.597Z,29.25
2022-07-25T18:45:01.294Z,29.31
2022-07-25T18:47:28.459Z,29.37
2022-07-25T18:49:59.157Z,29.43
2022-07-25T18:52:25.692Z,29.46
2022-07-25T18:54:52.107Z,29.47
2022-07-25T18:57:18.760Z,29.45
2022-07-25T18:59:45.726Z,29.41
2022-07-25T19:02:12.451Z,29.35
2022-07-25T19:04:39.062Z,29.28
2022-07-25T19:07:05.600Z,29.20
2022-07-25T19:09:32.019Z,29.09
2022-07-25T19:11:58.747Z,28.94
2022-07-25T19:14:27.272Z,28.75
2022-07-25T19:16:54.692Z,28.55
2022-07-25T19:19:21.199Z,28.32
2022-07-25T19:21:47.704Z,28.10
2022-07-25T19:24:14.240Z,27.88
2022-07-25T19:26:41.129Z,27.66
2022-07-25T19:29:09.015Z,27.45
2022-07-25T19:31:39.417Z,27.27
2022-07-25T19:34:07.301Z,27.08
2022-07-25T19:36:34.307Z,26.94
2022-07-25T19:39:00.820Z,26.79
2022-07-25T19:41:27.556Z,26.66
2022-07-25T19:43:54.615Z,26.53
2022-07-25T19:46:21.121Z,26.42
2022-07-25T19:48:47.843Z,26.31
2022-07-25T19:51:14.417Z,26.20
2022-07-25T19:53:40.899Z,26.10
2022-07-25T19:56:08.470Z,26.01
2022-07-25T19:58:38.598Z,25.92
2022-07-25T20:01:05.473Z,25.82
2022-07-25T20:03:32.005Z,25.74
2022-07-25T20:05:58.477Z,25.67
2022-07-25T20:08:24.918Z,25.60
2022-07-25T20:10:51.402Z,25.55
2022-07-25T20:13:17.943Z,25.50
2022-07-25T20:15:44.482Z,25.44
2022-07-25T20:18:13.801Z,25.40
2022-07-25T20:20:45.618Z,25.35
2022-07-25T20:23:12.134Z,25.33
2022-07-25T20:25:38.560Z,25.29
2022-07-25T20:28:05.066Z,25.28
2022-07-25T20:30:34.723Z,25.26
2022-07-25T20:33:01.737Z,25.23
2022-07-25T20:35:37.024Z,25.20
2022-07-25T20:38:09.049Z,25.17
2022-07-25T20:40:39.255Z,25.15
2022-07-25T20:43:08.412Z,25.11
2022-07-25T20:45:34.990Z,25.09
2022-07-25T20:48:01.556Z,25.05
2022-07-25T20:50:28.199Z,25.02
2022-07-25T20:52:54.801Z,25.00
2022-07-25T20:55:22.296Z,24.97
2022-07-25T20:57:50.704Z,24.95
2022-07-25T21:00:17.547Z,24.94
2022-07-25T21:02:44.331Z,24.90
2022-07-25T21:05:10.934Z,24.87
2022-07-25T21:07:37.489Z,24.85
2022-07-25T21:10:04.653Z,24.83
2022-07-25T21:12:32.932Z,24.81
2022-07-25T21:14:59.627Z,24.79
2022-07-25T21:17:26.056Z,24.79
2022-07-25T21:19:52.597Z,24.77
2022-07-25T21:22:19.164Z,24.75
2022-07-25T21:24:45.644Z,24.75
2022-07-25T21:27:12.091Z,24.74
2022-07-25T21:29:38.732Z,24.71
2022-07-25T21:32:05.744Z,24.69
2022-07-25T21:34:32.296Z,24.68
2022-07-25T21:36:58.796Z,24.66
2022-07-25T21:39:25.255Z,24.63
2022-07-25T21:41:54.918Z,24.59
2022-07-25T21:44:22.516Z,24.53
2022-07-25T21:46:50.082Z,24.48
2022-07-25T21:49:40.711Z,24.44
2022-07-25T21:52:08.674Z,24.40
2022-07-25T21:54:41.329Z,24.37
2022-07-25T21:57:13.967Z,24.35
2022-07-25T21:59:44.728Z,24.34
2022-07-25T22:02:11.952Z,24.31
2022-07-25T22:04:38.828Z,24.29
2022-07-25T22:07:06.008Z,24.29
2022-07-25T22:09:33.473Z,24.26
2022-07-25T22:12:00.032Z,24.24
2022-07-25T22:14:26.666Z,24.22
2022-07-25T22:16:53.490Z,24.19
2022-07-25T22:19:22.469Z,24.17
2022-07-25T22:21:49.931Z,24.13
2022-07-25T22:24:16.443Z,24.10
2022-07-25T22:26:43.000Z,24.08
2022-07-25T22:29:09.875Z,24.05
2022-07-25T22:31:38.797Z,24.02
2022-07-25T22:34:05.642Z,23.98
2022-07-25T22:36:32.105Z,23.97
2022-07-25T22:38:58.631Z,23.93
2022-07-25T22:41:25.178Z,23.91
2022-07-25T22:43:58.454Z,23.88
2022-07-25T22:46:30.118Z,23.85
2022-07-25T22:48:58.046Z,23.83
2022-07-25T22:51:25.464Z,23.79
2022-07-25T22:53:52.635Z,23.77
2022-07-25T22:56:19.583Z,23.75
2022-07-25T22:58:48.868Z,23.72
2022-07-25T23:01:16.607Z,23.71
2022-07-25T23:03:43.156Z,23.67
2022-07-25T23:06:10.112Z,23.66
2022-07-25T23:08:36.604Z,23.65
2022-07-25T23:11:06.034Z,23.64
2022-07-25T23:13:33.673Z,23.61
2022-07-25T23:16:00.346Z,23.60
2022-07-25T23:18:28.370Z,23.58
2022-07-25T23:20:55.052Z,23.54
2022-07-25T23:23:21.687Z,23.53
2022-07-25T23:25:48.247Z,23.50
2022-07-25T23:28:14.728Z,23.48
2022-07-25T23:30:41.219Z,23.47
2022-07-25T23:33:08.320Z,23.45
2022-07-25T23:35:35.264Z,23.43
2022-07-25T23:38:02.351Z,23.42
2022-07-25T23:40:29.243Z,23.41
2022-07-25T23:42:55.919Z,23.38
2022-07-25T23:45:28.435Z,23.36
2022-07-25T23:47:55.860Z,23.33
2022-07-25T23:50:23.063Z,23.30
2022-07-25T23:52:49.779Z,23.26
2022-07-25T23:55:16.255Z,23.23
2022-07-25T23:57:43.269Z,23.19
